Whitfield, Indiana
Current Conditions -  °F | °C
As of 11:35 PM on Saturday 25 Oct 2014 (Local Time) from KDCY Reporting Station
Clear Clear  
Wind Chill: 59°   Ceiling: Unl
Heat Index: 59°   Visibility: 10mi
Dew Point: 52°   Wind: 8mph
Humidity: 78%   Direction: 270°W
Pressure: 29.98"   Gusts: NA
Location:  38.6074°N, 86.9234°W
Report Text: KDCY 260435Z AUTO 27007KT 10SM CLR 15/11 A2998 RMK AO2 T01510113
Loading
Personal Weather Stations






























Interactive Weather Map
Tropical Storm Tracking
New forecast layout! Learn more

10-Day Weather Forecast

Advertisements
Track Severe Weather on mobile